Blythe, CA

6:47 PM PDT on October 31, 2014 (GMT -0700)
Blythe | Change Station
CLOSE
Current Station
Airport
Location: Blythe,
Elevation: 397 ft
Nearby Weather Stations

Elev 397 ft 33.62 °N, 114.72 °W | Updated 55 minutes ago

Clear
Clear
83 °F
Feels Like 82 °F
N
13
Wind Variable Wind from South

Today
High -- | Low -- °F
--% Chance of Precip.
Yesterday
High -- | Low -- °F
Precip. -- in
6:56 AM 5:47 PM
First Quarter, 61% visible
Pressure 29.70 in
Visibility 10.0 miles
Clouds Clear
Heat Index 82 °F
Dew Point 54 °F
Humidity 37%
Rainfall 0.00 in
Snow Depth Not available.
UV 0 out of 12
Pollen 5.70 out of 12
Air Quality Not available.
Flu Activity Not available.
METAR KBLH 010052Z AUTO 18011KT 10SM CLR 28/12 A2972 RMK AO2 SLP058 T02830122

More Conditions Fewer Conditions

Pressure 29.70 in
Visibility 10.0 miles
Clouds Clear
Heat Index 82 °F
Dew Point 54 °F
Humidity 37%
Rainfall 0.00 in
Snow Depth Not available.
UV 0 out of 12
Pollen 5.70 out of 12
Air Quality Not available.
Flu Activity Not available.
METAR KBLH 010052Z AUTO 18011KT 10SM CLR 28/12 A2972 RMK AO2 SLP058 T02830122

More Conditions Fewer Conditions

10-Day Weather Forecast

Almanac

Astronomy

Oct. 31, 2014 Rise Set
Actual Time
Civil Twilight
Nautical Twilight
Astronomical Twilight
Moon
Length of Visible Light
Length of Day
Tomorrow will be .
, % of the Moon is Illuminated

Today's Extremes

State Highs State Lows

Community

WunderPhotos

Upload Photos

1,766,810 photos uploaded!

WunderBlogs® & News

Nearby

Air Quality

  Air Quality AQ Index Pollutant
Not available.

Snow Depth

Station Depth Elevation

Earthquake Activity

City Distance Mag. Time & Date
Minimum magnitude displayed is 2.5.

Coastal Water Temperatures

Place Temperature

Nearby Weather Stations